Time;durP1;ratioP1;P1;durP2;ratioP2;P2;SDS_P1;SDS_P2;PMS_P1;PMS_P2;Temp;Humidity;BMP_temperature;BMP_pressure;BME280_temperature;BME280_humidity;BME280_pressure;Samples;Min_cycle;Max_cycle;Signal;HPM_P1;HPM_P2
2022/03/13 10:11:32;;;;;;;27.97;25.50;;;15.90;54.10;;;;;;5109203;27;20313;-73
2022/03/13 10:14:07;;;;;;;28.00;25.60;;;19.30;47.20;;;;;;5109061;28;21029;-72
2022/03/13 10:16:36;;;;;;;27.60;25.17;;;18.90;47.00;;;;;;5109296;28;20499;-72
2022/03/13 10:19:14;;;;;;;27.43;25.10;;;18.80;47.70;;;;;;5109238;28;20445;-73
2022/03/13 10:22:00;;;;;;;26.33;24.30;;;19.20;46.50;;;;;;5109061;28;20522;-72
2022/03/13 10:24:27;;;;;;;27.47;25.23;;;19.00;46.60;;;;;;5108940;28;20452;-72
2022/03/13 10:27:09;;;;;;;30.63;27.70;;;19.00;46.30;;;;;;5108961;28;20461;-71
2022/03/13 10:29:36;;;;;;;30.50;27.97;;;18.70;46.60;;;;;;5109086;28;20496;-74
2022/03/13 10:32:05;;;;;;;28.53;25.60;;;18.80;46.70;;;;;;5108614;28;20495;-73
2022/03/13 10:34:32;;;;;;;30.37;27.77;;;19.60;46.10;;;;;;5108733;28;20472;-74
2022/03/13 10:37:01;;;;;;;30.33;27.53;;;20.60;44.40;;;;;;5108808;28;20514;-74
2022/03/13 10:39:28;;;;;;;29.73;27.00;;;21.60;43.20;;;;;;5101509;28;20468;-74
2022/03/13 10:42:02;;;;;;;30.83;28.10;;;21.80;41.60;;;;;;5088264;28;21014;-74
2022/03/13 10:44:33;;;;;;;31.83;29.23;;;22.20;42.10;;;;;;5088503;28;20757;-74
2022/03/13 10:47:03;;;;;;;32.13;29.53;;;23.00;40.20;;;;;;5088100;28;20450;-73
2022/03/13 10:49:37;;;;;;;31.63;29.03;;;22.80;39.60;;;;;;5087962;28;20576;-73
2022/03/13 10:52:25;;;;;;;31.60;29.00;;;22.90;39.70;;;;;;5088114;28;20474;-73
2022/03/13 10:54:52;;;;;;;35.13;32.33;;;23.90;38.70;;;;;;5085634;28;20513;-73
2022/03/13 10:57:21;;;;;;;33.53;30.83;;;24.70;37.30;;;;;;5087866;28;20508;-73
2022/03/13 11:00:07;;;;;;;34.80;32.00;;;25.90;35.60;;;;;;5087617;28;21015;-73
2022/03/13 11:02:34;;;;;;;34.97;32.27;;;25.90;34.40;;;;;;5087498;28;20474;-73
2022/03/13 11:05:01;;;;;;;33.23;30.73;;;26.30;33.70;;;;;;5087589;28;20539;-73
2022/03/13 11:07:28;;;;;;;32.80;30.20;;;27.30;32.20;;;;;;5087625;28;20447;-74
2022/03/13 11:09:55;;;;;;;33.27;30.57;;;26.40;32.20;;;;;;5087436;28;20563;-73
2022/03/13 11:12:24;;;;;;;31.10;28.83;;;25.50;32.60;;;;;;5073576;28;20482;-73
2022/03/13 11:14:53;;;;;;;35.13;32.17;;;25.20;33.40;;;;;;5074370;28;20448;-74
2022/03/13 11:17:22;;;;;;;33.27;30.63;;;25.50;33.10;;;;;;5074105;28;20525;-74
2022/03/13 11:19:51;;;;;;;32.20;29.50;;;25.40;33.30;;;;;;5074058;28;20443;-74
2022/03/13 11:22:20;;;;;;;32.40;29.40;;;26.00;33.00;;;;;;5074104;28;20459;-74
2022/03/13 11:24:48;;;;;;;32.17;29.77;;;26.10;32.50;;;;;;5074012;28;20452;-74
2022/03/13 11:27:15;;;;;;;31.47;29.07;;;26.70;31.90;;;;;;5074014;28;20505;-75
2022/03/13 11:29:45;;;;;;;32.57;29.70;;;26.50;31.90;;;;;;5073819;28;20487;-75
2022/03/13 11:32:46;;;;;;;30.27;27.90;;;27.20;31.30;;;;;;5073754;28;20812;-74
2022/03/13 11:35:29;;;;;;;33.90;31.00;;;26.50;31.10;;;;;;5011748;28;21062;-75
2022/03/13 11:38:17;;;;;;;34.90;31.90;;;25.80;32.30;;;;;;5011639;28;20853;-75
2022/03/13 11:40:43;;;;;;;34.53;31.83;;;25.60;32.90;;;;;;5055244;28;20475;-75
2022/03/13 11:43:12;;;;;;;34.13;31.33;;;25.00;33.00;;;;;;5073602;28;20440;-75
2022/03/13 11:45:41;;;;;;;32.90;30.30;;;25.60;32.80;;;;;;5073383;28;20451;-74
2022/03/13 11:48:37;;;;;;;32.83;30.27;;;25.90;32.50;;;;;;5073547;28;20501;-74
2022/03/13 11:51:04;;;;;;;30.73;28.43;;;26.60;31.80;;;;;;5038347;28;20897;-75
2022/03/13 11:53:42;;;;;;;33.53;30.87;;;26.90;31.00;;;;;;5073305;28;20474;-75
2022/03/13 11:56:10;;;;;;;32.13;29.63;;;26.80;31.30;;;;;;5073416;28;20455;-74
2022/03/13 11:58:41;;;;;;;32.50;29.87;;;26.90;30.90;;;;;;5073122;28;20512;-75
2022/03/13 12:01:12;;;;;;;33.63;30.87;;;27.70;30.10;;;;;;5073152;28;20468;-74
2022/03/13 12:03:39;;;;;;;34.73;32.13;;;27.60;30.10;;;;;;5072963;28;20529;-74
2022/03/13 12:06:05;;;;;;;31.80;29.30;;;28.30;29.80;;;;;;5072953;28;20478;-75
2022/03/13 12:09:06;;;;;;;36.00;32.80;;;28.70;29.30;;;;;;5073078;28;20460;-74
2022/03/13 12:11:41;;;;;;;34.40;31.50;;;27.70;29.00;;;;;;5073069;28;20471;-73
2022/03/13 12:14:08;;;;;;;35.40;32.50;;;26.10;30.40;;;;;;5072923;28;20484;-74
2022/03/13 12:16:37;;;;;;;33.77;30.90;;;26.50;30.60;;;;;;5072620;28;20443;-74
2022/03/13 12:19:05;;;;;;;32.87;30.17;;;26.60;30.50;;;;;;5072699;28;20447;-73
2022/03/13 12:21:32;;;;;;;35.67;32.70;;;26.70;29.80;;;;;;5072771;28;20501;-74
2022/03/13 12:24:12;;;;;;;35.70;32.83;;;27.00;29.80;;;;;;5071527;28;21008;-73
2022/03/13 12:26:39;;;;;;;35.00;32.10;;;26.80;29.70;;;;;;5072511;28;20486;-74
2022/03/13 12:29:07;;;;;;;35.67;32.70;;;26.30;30.00;;;;;;5072582;28;20448;-74
2022/03/13 12:31:41;;;;;;;35.03;31.97;;;25.80;30.40;;;;;;5072432;28;20440;-74
2022/03/13 12:34:09;;;;;;;34.43;31.50;;;25.80;30.90;;;;;;5072475;28;20784;-75
2022/03/13 12:36:37;;;;;;;36.30;33.10;;;25.50;30.80;;;;;;5072531;28;20439;-75
2022/03/13 12:39:11;;;;;;;35.10;32.10;;;24.00;32.40;;;;;;5072373;28;20756;-75
2022/03/13 12:41:39;;;;;;;33.03;30.33;;;24.10;32.90;;;;;;5072482;28;20953;-75
2022/03/13 12:44:06;;;;;;;35.30;32.30;;;24.50;32.30;;;;;;5072375;28;20458;-73
2022/03/13 12:46:33;;;;;;;35.67;32.80;;;25.90;31.10;;;;;;5072179;28;20501;-73
2022/03/13 12:49:03;;;;;;;34.87;31.77;;;27.00;29.60;;;;;;5072130;28;20861;-73
2022/03/13 12:51:35;;;;;;;34.43;31.77;;;28.10;28.80;;;;;;5072139;28;20487;-73
2022/03/13 12:54:04;;;;;;;35.20;32.53;;;29.00;28.30;;;;;;5072218;28;20542;-74
2022/03/13 12:56:31;;;;;;;33.93;31.33;;;29.40;28.00;;;;;;5072601;28;20625;-75
2022/03/13 12:58:58;;;;;;;34.53;31.67;;;30.10;27.00;;;;;;5072165;28;20450;-74
2022/03/13 13:01:25;;;;;;;35.50;32.30;;;29.70;27.20;;;;;;5071828;28;20467;-76
2022/03/13 13:03:52;;;;;;;33.10;30.60;;;28.50;27.80;;;;;;5072179;28;20452;-76
2022/03/13 13:06:36;;;;;;;33.43;30.80;;;28.10;28.40;;;;;;5072100;28;20451;-75
2022/03/13 13:09:03;;;;;;;33.67;30.97;;;27.70;28.60;;;;;;5071766;28;20766;-75
2022/03/13 13:11:31;;;;;;;33.00;30.17;;;26.90;29.10;;;;;;5071692;28;20487;-75
2022/03/13 13:13:59;;;;;;;32.10;29.43;;;26.80;29.70;;;;;;5071782;28;21076;-74
2022/03/13 13:16:29;;;;;;;29.97;27.60;;;26.30;29.50;;;;;;5071807;28;20451;-75
2022/03/13 13:18:56;;;;;;;31.80;29.10;;;26.20;29.50;;;;;;5072038;28;20513;-75
2022/03/13 13:21:35;;;;;;;31.00;28.60;;;26.20;29.10;;;;;;5072290;28;20501;-74
2022/03/13 13:24:02;;;;;;;32.10;29.50;;;26.00;29.50;;;;;;5074078;28;20509;-74
2022/03/13 13:26:42;;;;;;;31.67;29.17;;;25.40;29.50;;;;;;5082783;28;20824;-74
2022/03/13 13:29:09;;;;;;;30.93;28.23;;;24.30;30.60;;;;;;5087092;28;20459;-74
2022/03/13 13:31:35;;;;;;;30.97;28.47;;;23.50;30.80;;;;;;5082993;28;20486;-74
2022/03/13 13:34:15;;;;;;;30.27;27.77;;;23.00;31.30;;;;;;5078425;28;20978;-74
2022/03/13 13:36:43;;;;;;;30.47;27.87;;;23.00;31.50;;;;;;5071352;28;20903;-74
2022/03/13 13:39:11;;;;;;;29.00;26.70;;;23.20;31.60;;;;;;5071283;28;20868;-75
2022/03/13 13:41:39;;;;;;;30.37;27.77;;;22.90;31.80;;;;;;5071489;28;20451;-75
2022/03/13 13:44:05;;;;;;;31.07;28.43;;;22.60;32.20;;;;;;5071478;28;20451;-73
2022/03/13 13:46:32;;;;;;;30.07;27.50;;;22.90;31.90;;;;;;5071045;28;20454;-74
2022/03/13 13:48:59;;;;;;;31.57;28.37;;;22.80;32.10;;;;;;5071364;28;20516;-74
2022/03/13 13:51:33;;;;;;;30.60;28.00;;;22.60;31.90;;;;;;5071105;28;20498;-74
2022/03/13 13:54:05;;;;;;;29.10;26.63;;;22.90;32.20;;;;;;5071173;28;20826;-74
2022/03/13 13:56:34;;;;;;;30.60;28.10;;;23.20;31.60;;;;;;5071259;28;20451;-75
2022/03/13 13:59:16;;;;;;;29.07;26.60;;;22.80;31.30;;;;;;5071210;28;20987;-74
2022/03/13 14:01:44;;;;;;;29.83;27.43;;;21.50;32.80;;;;;;5070992;28;20467;-74
2022/03/13 14:04:11;;;;;;;31.07;28.37;;;20.40;34.30;;;;;;5071222;28;20504;-73
2022/03/13 14:06:38;;;;;;;29.83;27.23;;;19.90;35.50;;;;;;5071076;28;20451;-75
2022/03/13 14:09:07;;;;;;;27.83;25.43;;;19.30;35.70;;;;;;5070794;28;20455;-73
2022/03/13 14:11:34;;;;;;;25.97;23.67;;;19.10;36.30;;;;;;5070948;28;20494;-73
2022/03/13 14:14:02;;;;;;;30.27;27.63;;;18.90;36.80;;;;;;5071121;28;20455;-75
2022/03/13 14:16:29;;;;;;;26.23;23.77;;;18.60;37.20;;;;;;5070863;28;20463;-74
2022/03/13 14:18:56;;;;;;;28.40;25.90;;;18.30;37.10;;;;;;5070843;28;20459;-74
2022/03/13 14:21:22;;;;;;;28.53;25.93;;;18.10;37.30;;;;;;5070885;28;20441;-74
2022/03/13 14:23:49;;;;;;;28.50;25.80;;;18.10;37.90;;;;;;5070902;28;20451;-75
2022/03/13 14:26:17;;;;;;;28.70;26.20;;;18.00;38.10;;;;;;5070732;28;20934;-75
2022/03/13 14:28:44;;;;;;;27.97;25.47;;;18.00;39.00;;;;;;5071072;28;20460;-74
2022/03/13 14:31:11;;;;;;;27.53;25.10;;;18.00;38.30;;;;;;5070649;28;20494;-75
2022/03/13 14:33:40;;;;;;;28.27;25.57;;;18.00;38.30;;;;;;5070529;28;20920;-75
2022/03/13 14:36:08;;;;;;;26.60;24.20;;;18.00;38.30;;;;;;5070759;28;20479;-75
2022/03/13 14:38:35;;;;;;;27.33;24.53;;;18.00;38.70;;;;;;5070872;28;20457;-74
2022/03/13 14:41:02;;;;;;;26.57;24.00;;;18.00;38.90;;;;;;5070704;28;20565;-75
2022/03/13 14:43:31;;;;;;;26.30;24.00;;;18.10;38.40;;;;;;5070772;28;20454;-75
2022/03/13 14:45:58;;;;;;;26.20;23.87;;;17.90;38.60;;;;;;5071520;28;21061;-75
2022/03/13 14:48:24;;;;;;;26.00;23.63;;;17.70;38.00;;;;;;5074654;28;20454;-75
2022/03/13 14:50:52;;;;;;;26.93;24.30;;;17.70;38.60;;;;;;5074351;28;20541;-75
2022/03/13 14:53:19;;;;;;;26.33;23.93;;;17.60;38.60;;;;;;5074421;28;20464;-76
2022/03/13 14:55:46;;;;;;;26.17;23.43;;;17.50;38.80;;;;;;5074259;28;20958;-75
2022/03/13 14:58:13;;;;;;;25.53;23.20;;;17.50;39.20;;;;;;5074176;28;20454;-75
2022/03/13 15:00:41;;;;;;;25.40;23.00;;;17.60;39.30;;;;;;5074052;28;20479;-75
2022/03/13 15:03:08;;;;;;;24.73;22.53;;;17.70;39.00;;;;;;5074270;28;20483;-75
2022/03/13 15:05:35;;;;;;;24.80;22.60;;;17.70;38.80;;;;;;5074240;28;20526;-75
2022/03/13 15:08:01;;;;;;;26.77;24.43;;;17.60;38.90;;;;;;5074094;28;20458;-74
2022/03/13 15:10:28;;;;;;;24.00;21.93;;;17.60;38.70;;;;;;5073629;28;20498;-74
2022/03/13 15:12:55;;;;;;;23.50;21.50;;;17.50;38.80;;;;;;5074028;28;20454;-74
2022/03/13 15:15:22;;;;;;;24.53;22.33;;;17.50;38.80;;;;;;5074067;28;20544;-74
2022/03/13 15:17:52;;;;;;;25.27;22.87;;;17.40;39.10;;;;;;5073863;28;20459;-75
2022/03/13 15:20:19;;;;;;;27.83;25.13;;;17.30;39.10;;;;;;5073845;28;20451;-75
2022/03/13 15:22:46;;;;;;;25.43;23.13;;;17.30;39.70;;;;;;5073860;28;20508;-74
2022/03/13 15:25:12;;;;;;;26.60;23.90;;;17.30;39.40;;;;;;5073639;28;20442;-75
2022/03/13 15:27:39;;;;;;;25.90;23.57;;;17.20;39.20;;;;;;5073738;28;20480;-75
2022/03/13 15:30:07;;;;;;;24.77;22.47;;;17.20;39.70;;;;;;5073763;28;20456;-74
2022/03/13 15:32:34;;;;;;;25.80;23.30;;;17.20;39.30;;;;;;5073526;28;20571;-75
2022/03/13 15:35:03;;;;;;;25.47;23.10;;;17.30;39.70;;;;;;5069712;28;20965;-76
2022/03/13 15:37:30;;;;;;;25.60;23.17;;;17.30;40.00;;;;;;5073911;28;20451;-74
2022/03/13 15:39:56;;;;;;;27.63;24.93;;;17.30;39.60;;;;;;5074049;28;20461;-75
2022/03/13 15:42:23;;;;;;;23.80;21.47;;;17.30;39.70;;;;;;5074075;28;20498;-74
2022/03/13 15:44:50;;;;;;;25.70;23.23;;;17.20;40.10;;;;;;5073859;28;20446;-75
2022/03/13 15:47:17;;;;;;;24.97;22.77;;;17.20;39.70;;;;;;5073682;28;20450;-74
2022/03/13 15:49:44;;;;;;;26.67;24.20;;;17.10;39.40;;;;;;5073575;28;20937;-74
2022/03/13 15:52:12;;;;;;;25.27;22.73;;;17.10;39.40;;;;;;5073616;28;21025;-74
2022/03/13 15:54:39;;;;;;;25.33;23.13;;;17.00;39.50;;;;;;5073708;28;20863;-74
2022/03/13 15:57:06;;;;;;;24.60;22.60;;;17.00;39.50;;;;;;5073679;28;20473;-74
2022/03/13 15:59:33;;;;;;;25.03;22.73;;;17.00;39.80;;;;;;5073637;28;20460;-75
2022/03/13 16:02:00;;;;;;;24.33;22.23;;;17.10;39.50;;;;;;5073662;28;20470;-74
2022/03/13 16:04:27;;;;;;;24.97;22.67;;;17.00;39.70;;;;;;5073815;28;21027;-75
2022/03/13 16:06:53;;;;;;;23.87;21.63;;;17.00;39.40;;;;;;5073715;28;20585;-75
2022/03/13 16:09:21;;;;;;;23.63;21.27;;;17.00;38.80;;;;;;5073434;28;20480;-75
2022/03/13 16:11:48;;;;;;;22.57;20.53;;;17.00;38.90;;;;;;5073848;28;20486;-75
2022/03/13 16:14:17;;;;;;;26.73;21.63;;;16.90;39.60;;;;;;5073894;28;20461;-76
2022/03/13 16:16:44;;;;;;;22.80;20.80;;;16.90;39.50;;;;;;5073875;28;20457;-75
2022/03/13 16:19:14;;;;;;;22.60;20.70;;;16.90;39.40;;;;;;5073985;28;20457;-75
2022/03/13 16:21:41;;;;;;;22.57;20.60;;;16.90;38.90;;;;;;5073780;28;20455;-75
2022/03/13 16:24:08;;;;;;;24.93;22.67;;;16.80;38.80;;;;;;5073951;28;20455;-75
2022/03/13 16:26:38;;;;;;;23.23;21.03;;;16.80;38.80;;;;;;5073837;28;20488;-74
2022/03/13 16:29:56;;;;;;;23.50;21.30;;;16.70;39.00;;;;;;5073749;28;20856;-74
2022/03/13 16:32:23;;;;;;;23.77;21.67;;;16.70;39.10;;;;;;5056481;28;21018;-74
2022/03/13 16:34:50;;;;;;;24.63;22.43;;;16.70;39.40;;;;;;5073768;28;20560;-75
2022/03/13 16:37:18;;;;;;;23.67;21.47;;;16.60;39.60;;;;;;5073642;28;20458;-75
2022/03/13 16:39:46;;;;;;;24.23;22.13;;;16.50;39.70;;;;;;5073652;28;20455;-76
2022/03/13 16:42:14;;;;;;;22.97;20.90;;;16.50;40.00;;;;;;5073593;28;20460;-74
2022/03/13 16:44:41;;;;;;;26.03;23.47;;;16.40;40.30;;;;;;5073527;28;20483;-74
2022/03/13 16:47:08;;;;;;;22.97;20.97;;;16.30;40.50;;;;;;5073382;28;20452;-76
2022/03/13 16:49:34;;;;;;;23.43;21.23;;;16.30;40.70;;;;;;5073472;28;20444;-75
2022/03/13 16:52:01;;;;;;;24.30;22.07;;;16.10;41.00;;;;;;5073222;28;20487;-76
2022/03/13 16:54:28;;;;;;;23.87;21.67;;;16.00;41.20;;;;;;5073276;28;20455;-76
2022/03/13 16:56:56;;;;;;;22.63;20.37;;;16.10;41.10;;;;;;5073216;28;20449;-74
2022/03/13 16:59:25;;;;;;;21.63;19.93;;;16.00;41.00;;;;;;5073298;28;20457;-74
2022/03/13 17:01:52;;;;;;;23.37;21.27;;;15.90;41.10;;;;;;5073020;28;20876;-74
2022/03/13 17:04:19;;;;;;;22.17;20.20;;;15.80;41.70;;;;;;5073179;28;20948;-73
2022/03/13 17:06:46;;;;;;;23.40;21.57;;;15.70;41.50;;;;;;5073126;28;20511;-74
2022/03/13 17:09:15;;;;;;;24.50;22.40;;;15.60;41.80;;;;;;5072514;28;20844;-73
2022/03/13 17:11:42;;;;;;;23.80;21.70;;;15.60;42.00;;;;;;5072989;28;20520;-76
2022/03/13 17:14:09;;;;;;;23.03;20.63;;;15.50;41.90;;;;;;5073031;28;20823;-74
2022/03/13 17:16:37;;;;;;;22.73;20.70;;;15.40;41.80;;;;;;5072833;28;20543;-74
2022/03/13 17:19:04;;;;;;;25.73;23.17;;;15.30;42.00;;;;;;5072991;28;20459;-74
2022/03/13 17:21:32;;;;;;;22.13;20.23;;;15.20;42.30;;;;;;5072927;28;20501;-74
2022/03/13 17:24:00;;;;;;;23.80;21.80;;;15.10;42.80;;;;;;5072818;28;20448;-74
2022/03/13 17:26:27;;;;;;;23.00;20.70;;;14.90;42.80;;;;;;5072783;28;20451;-74
2022/03/13 17:28:53;;;;;;;23.97;21.80;;;14.90;43.10;;;;;;5072925;28;20443;-74
2022/03/13 17:31:20;;;;;;;22.37;20.30;;;14.70;43.60;;;;;;5072784;28;20767;-74
2022/03/13 17:33:48;;;;;;;27.80;25.23;;;14.50;43.90;;;;;;5072717;28;20448;-74
2022/03/13 17:36:15;;;;;;;24.40;22.10;;;14.20;44.20;;;;;;5072724;28;20456;-74
2022/03/13 17:38:42;;;;;;;22.80;20.50;;;14.10;44.50;;;;;;5072803;28;20517;-75
2022/03/13 17:41:10;;;;;;;21.37;19.47;;;14.10;44.30;;;;;;5072813;28;20493;-74
2022/03/13 17:43:37;;;;;;;25.20;22.70;;;14.10;43.60;;;;;;5072766;28;20458;-75
2022/03/13 17:46:04;;;;;;;22.60;20.50;;;14.20;43.20;;;;;;5072599;28;21028;-74
2022/03/13 17:48:30;;;;;;;21.83;19.70;;;14.20;43.10;;;;;;5072635;28;20504;-74
2022/03/13 17:50:58;;;;;;;21.77;19.70;;;14.30;42.70;;;;;;5072746;28;20820;-74
2022/03/13 17:53:25;;;;;;;21.13;19.23;;;14.20;42.70;;;;;;5072658;28;20448;-73
2022/03/13 17:55:52;;;;;;;22.70;20.60;;;14.10;42.90;;;;;;5072557;28;20448;-74
2022/03/13 17:58:19;;;;;;;20.60;18.90;;;14.00;43.40;;;;;;5072482;28;20531;-74
